createdAt,value
2022-08-02T00:00:59.498Z,23.57
2022-08-02T00:03:27.645Z,23.57
2022-08-02T00:05:57.570Z,23.48
2022-08-02T00:08:25.953Z,23.44
2022-08-02T00:10:54.129Z,23.45
2022-08-02T00:13:22.182Z,23.43
2022-08-02T00:15:50.354Z,23.42
2022-08-02T00:18:18.465Z,23.40
2022-08-02T00:20:46.678Z,23.42
2022-08-02T00:23:16.141Z,23.40
2022-08-02T00:25:55.488Z,23.39
2022-08-02T00:28:26.850Z,23.41
2022-08-02T00:30:57.178Z,23.40
2022-08-02T00:34:05.613Z,23.42
2022-08-02T00:36:13.743Z,23.37
2022-08-02T00:38:43.252Z,23.35
2022-08-02T00:41:16.343Z,23.32
2022-08-02T00:43:44.600Z,23.31
2022-08-02T00:46:12.794Z,23.31
2022-08-02T00:48:43.196Z,23.30
2022-08-02T00:51:11.785Z,23.30
2022-08-02T00:53:39.958Z,23.30
2022-08-02T00:56:09.593Z,23.29
2022-08-02T00:58:38.337Z,23.29
2022-08-02T01:01:06.631Z,23.26
2022-08-02T01:03:34.896Z,23.24
2022-08-02T01:06:18.215Z,23.28
2022-08-02T01:08:46.587Z,23.30
2022-08-02T01:11:16.094Z,23.28
2022-08-02T01:13:44.238Z,23.33
2022-08-02T01:16:15.540Z,23.33
2022-08-02T01:18:46.867Z,23.29
2022-08-02T01:21:47.567Z,23.33
2022-08-02T01:24:22.676Z,23.35
2022-08-02T01:26:53.838Z,23.37
2022-08-02T01:29:26.151Z,23.41
2022-08-02T01:31:56.859Z,23.40
2022-08-02T01:34:29.567Z,23.41
2022-08-02T01:36:59.874Z,23.45
2022-08-02T01:39:32.563Z,23.51
2022-08-02T01:42:01.237Z,23.53
2022-08-02T01:44:33.330Z,23.54
2022-08-02T01:47:02.481Z,23.57
2022-08-02T01:49:31.423Z,23.57
2022-08-02T01:52:17.524Z,23.54
2022-08-02T01:54:45.661Z,23.55
2022-08-02T01:57:13.742Z,23.55
2022-08-02T01:59:44.263Z,23.56
2022-08-02T02:02:12.860Z,23.57
2022-08-02T02:04:41.208Z,23.58
2022-08-02T02:07:09.340Z,23.54
2022-08-02T02:09:50.152Z,23.55
2022-08-02T02:12:19.905Z,23.56
2022-08-02T02:14:52.113Z,23.56
2022-08-02T02:17:52.059Z,23.61
2022-08-02T02:20:11.113Z,23.66
2022-08-02T02:22:39.188Z,23.64
2022-08-02T02:25:08.861Z,23.62
2022-08-02T02:27:40.347Z,23.62
2022-08-02T02:30:14.600Z,23.60
2022-08-02T02:32:43.029Z,23.62
2022-08-02T02:35:11.103Z,23.64
2022-08-02T02:37:39.235Z,23.65
2022-08-02T02:40:08.920Z,23.64
2022-08-02T02:42:37.085Z,23.68
2022-08-02T02:45:10.279Z,23.69
2022-08-02T02:47:40.702Z,23.70
2022-08-02T02:50:10.342Z,23.74
2022-08-02T02:52:38.493Z,23.72
2022-08-02T02:55:07.336Z,23.70
2022-08-02T02:57:35.562Z,23.63
2022-08-02T03:00:04.077Z,23.65
2022-08-02T03:02:32.154Z,23.69
2022-08-02T03:05:02.915Z,23.69
2022-08-02T03:07:31.039Z,23.69
2022-08-02T03:09:59.714Z,23.74
2022-08-02T03:12:31.992Z,23.74
2022-08-02T03:15:00.925Z,23.76
2022-08-02T03:17:38.987Z,23.78
2022-08-02T03:20:11.989Z,23.78
2022-08-02T03:22:40.232Z,23.78
2022-08-02T03:25:09.575Z,23.78
2022-08-02T03:27:37.782Z,23.78
2022-08-02T03:30:06.763Z,23.81
2022-08-02T03:32:35.088Z,23.81
2022-08-02T03:35:03.235Z,23.81
2022-08-02T03:37:32.818Z,23.82
2022-08-02T03:40:00.988Z,23.80
2022-08-02T03:42:29.160Z,23.80
2022-08-02T03:44:57.286Z,23.83
2022-08-02T03:47:25.372Z,23.83
2022-08-02T03:49:53.425Z,23.84
2022-08-02T03:52:21.603Z,23.79
2022-08-02T03:54:51.038Z,23.76
2022-08-02T03:57:19.142Z,23.70
2022-08-02T03:59:47.455Z,23.69
2022-08-02T04:02:15.646Z,23.67
2022-08-02T04:04:43.718Z,23.64
2022-08-02T04:07:11.811Z,23.63
2022-08-02T04:09:40.856Z,23.60
2022-08-02T04:12:10.996Z,23.58
2022-08-02T04:14:39.291Z,23.55
2022-08-02T04:17:08.694Z,23.55
2022-08-02T04:19:39.493Z,23.51
2022-08-02T04:22:08.895Z,23.52
2022-08-02T04:24:39.451Z,23.52
2022-08-02T04:27:49.821Z,23.54
2022-08-02T04:29:57.110Z,23.57
2022-08-02T04:32:25.212Z,23.60
2022-08-02T04:35:20.822Z,23.61
2022-08-02T04:38:09.935Z,23.64
2022-08-02T04:40:29.494Z,23.64
2022-08-02T04:42:57.621Z,23.69
2022-08-02T04:45:27.393Z,23.68
2022-08-02T04:48:04.679Z,23.71
2022-08-02T04:50:33.287Z,23.71
2022-08-02T04:53:01.396Z,23.72
2022-08-02T04:55:30.123Z,23.74
2022-08-02T04:57:58.761Z,23.77
2022-08-02T05:00:29.123Z,23.78
2022-08-02T05:02:57.355Z,23.77
2022-08-02T05:05:25.891Z,23.79
2022-08-02T05:07:54.026Z,23.78
2022-08-02T05:10:22.245Z,23.78
2022-08-02T05:12:50.456Z,23.80
2022-08-02T05:15:19.118Z,23.79
2022-08-02T05:17:49.036Z,23.80
2022-08-02T05:20:17.385Z,23.82
2022-08-02T05:22:45.489Z,23.83
2022-08-02T05:25:13.599Z,23.85
2022-08-02T05:27:41.634Z,23.86
2022-08-02T05:30:10.347Z,23.87
2022-08-02T05:32:44.711Z,23.87
2022-08-02T05:35:14.386Z,23.87
2022-08-02T05:37:43.115Z,23.87
2022-08-02T05:40:13.120Z,23.86
2022-08-02T05:42:41.692Z,23.88
2022-08-02T05:45:10.400Z,23.86
2022-08-02T05:47:38.536Z,23.89
2022-08-02T05:50:07.740Z,23.91
2022-08-02T05:52:47.354Z,23.92
2022-08-02T05:55:18.257Z,23.91
2022-08-02T05:57:53.507Z,23.88
2022-08-02T06:00:22.154Z,23.87
2022-08-02T06:03:19.337Z,23.86
2022-08-02T06:05:51.861Z,23.84
2022-08-02T06:08:22.531Z,23.85
2022-08-02T06:10:50.957Z,23.86
2022-08-02T06:13:20.365Z,23.87
2022-08-02T06:15:52.901Z,23.88
2022-08-02T06:18:28.517Z,23.79
2022-08-02T06:20:57.962Z,23.84
2022-08-02T06:23:29.083Z,23.80
2022-08-02T06:25:58.032Z,23.82
2022-08-02T06:28:26.834Z,23.81
2022-08-02T06:30:54.981Z,23.82
2022-08-02T06:33:23.176Z,23.85
2022-08-02T06:35:53.274Z,23.87
2022-08-02T06:38:24.090Z,23.86
2022-08-02T06:40:57.043Z,23.90
2022-08-02T06:43:28.477Z,23.90
2022-08-02T06:45:56.569Z,23.93
2022-08-02T06:48:44.688Z,23.95
2022-08-02T06:51:12.785Z,23.98
2022-08-02T06:53:41.109Z,24.01
2022-08-02T06:56:11.029Z,24.06
2022-08-02T06:58:41.244Z,24.10
2022-08-02T07:01:09.918Z,24.12
2022-08-02T07:03:38.896Z,24.17
2022-08-02T07:06:09.011Z,24.20
2022-08-02T07:08:38.504Z,24.24
2022-08-02T07:11:06.700Z,24.26
2022-08-02T07:13:39.686Z,24.29
2022-08-02T07:16:08.340Z,24.31
2022-08-02T07:18:36.731Z,24.29
2022-08-02T07:21:06.190Z,24.30
2022-08-02T07:23:37.096Z,24.30
2022-08-02T07:26:06.096Z,24.28
2022-08-02T07:28:35.707Z,24.30
2022-08-02T07:31:05.722Z,24.30
2022-08-02T07:33:38.477Z,24.33
2022-08-02T07:36:09.760Z,24.34
2022-08-02T07:38:44.910Z,24.30
2022-08-02T07:41:13.789Z,24.28
2022-08-02T07:43:43.349Z,24.26
2022-08-02T07:46:11.600Z,24.25
2022-08-02T07:48:40.003Z,24.30
2022-08-02T07:51:08.204Z,24.36
2022-08-02T07:53:51.388Z,24.36
2022-08-02T07:56:20.094Z,24.41
2022-08-02T07:58:49.634Z,24.42
2022-08-02T08:01:18.590Z,24.38
2022-08-02T08:03:47.034Z,24.41
2022-08-02T08:06:15.158Z,24.46
2022-08-02T08:08:44.684Z,24.48
2022-08-02T08:11:12.819Z,24.48
2022-08-02T08:13:41.001Z,24.51
2022-08-02T08:16:10.478Z,24.54
2022-08-02T08:18:38.620Z,24.61
2022-08-02T08:21:06.695Z,24.63
2022-08-02T08:23:36.484Z,24.64
2022-08-02T08:26:05.281Z,24.64
2022-08-02T08:28:33.346Z,24.70
2022-08-02T08:31:01.836Z,24.76
2022-08-02T08:33:31.394Z,24.79
2022-08-02T08:35:59.679Z,24.81
2022-08-02T08:38:31.472Z,24.81
2022-08-02T08:40:59.583Z,24.85
2022-08-02T08:43:27.794Z,24.88
2022-08-02T08:45:56.552Z,24.93
2022-08-02T08:48:30.605Z,25.00
2022-08-02T08:51:03.120Z,25.04
2022-08-02T08:53:36.632Z,25.10
2022-08-02T08:56:05.613Z,25.17
2022-08-02T08:58:33.716Z,25.22
2022-08-02T09:01:02.002Z,25.25
2022-08-02T09:03:33.821Z,25.25
2022-08-02T09:06:04.956Z,25.27
2022-08-02T09:08:34.384Z,25.34
2022-08-02T09:11:02.649Z,25.41
2022-08-02T09:13:45.372Z,25.47
2022-08-02T09:16:15.014Z,25.55
2022-08-02T09:18:45.543Z,25.59
2022-08-02T09:21:16.077Z,25.63
2022-08-02T09:23:45.208Z,25.76
2022-08-02T09:26:21.304Z,25.78
2022-08-02T09:28:51.614Z,25.92
2022-08-02T09:31:20.804Z,25.89
2022-08-02T09:33:52.823Z,25.78
2022-08-02T09:36:22.577Z,25.72
2022-08-02T09:38:55.232Z,25.66
2022-08-02T09:41:24.250Z,25.66
2022-08-02T09:44:05.451Z,25.63
2022-08-02T09:46:37.700Z,25.64
2022-08-02T09:49:08.238Z,25.56
2022-08-02T09:51:40.412Z,25.56
2022-08-02T09:54:09.918Z,25.62
2022-08-02T09:56:43.306Z,25.64
2022-08-02T09:59:11.626Z,25.71
2022-08-02T10:01:40.275Z,25.77
2022-08-02T10:04:19.904Z,25.77
2022-08-02T10:06:51.531Z,25.74
2022-08-02T10:09:32.910Z,25.72
2022-08-02T10:12:01.637Z,25.74
2022-08-02T10:14:31.551Z,25.73
2022-08-02T10:16:59.828Z,25.74
2022-08-02T10:19:59.724Z,25.79
2022-08-02T10:22:19.938Z,25.68
2022-08-02T10:24:48.870Z,25.87
2022-08-02T10:27:20.450Z,25.96
2022-08-02T10:29:54.164Z,25.99
2022-08-02T10:32:26.048Z,26.15
2022-08-02T10:34:55.571Z,26.27
2022-08-02T10:37:29.716Z,26.35
2022-08-02T10:39:58.240Z,26.45
2022-08-02T10:42:45.364Z,26.54
2022-08-02T10:45:15.732Z,26.60
2022-08-02T10:47:58.651Z,26.72
2022-08-02T10:50:54.203Z,26.76
2022-08-02T10:53:28.103Z,26.86
2022-08-02T10:55:56.657Z,27.06
2022-08-02T10:58:30.221Z,27.03
2022-08-02T11:00:59.935Z,27.09
2022-08-02T11:03:40.836Z,27.05
2022-08-02T11:06:25.620Z,27.00
2022-08-02T11:09:33.213Z,26.96
2022-08-02T11:12:04.837Z,26.78
2022-08-02T11:14:33.901Z,26.82
2022-08-02T11:17:12.827Z,26.81
2022-08-02T11:20:14.442Z,26.87
2022-08-02T11:22:44.082Z,26.90
2022-08-02T11:26:00.861Z,26.99
2022-08-02T11:28:24.968Z,26.99
2022-08-02T11:31:00.157Z,27.08
2022-08-02T11:33:32.840Z,27.06
2022-08-02T11:36:06.873Z,27.08
2022-08-02T11:38:36.089Z,27.32
2022-08-02T11:41:09.573Z,27.33
2022-08-02T11:43:47.047Z,27.39
2022-08-02T11:46:15.855Z,27.47
2022-08-02T11:48:45.396Z,27.41
2022-08-02T11:51:14.389Z,27.61
2022-08-02T11:53:43.947Z,27.59
2022-08-02T11:56:12.331Z,27.53
2022-08-02T11:58:42.021Z,27.64
2022-08-02T12:01:10.469Z,27.53
2022-08-02T12:03:40.369Z,27.46
2022-08-02T12:06:16.296Z,27.58
2022-08-02T12:08:54.589Z,27.80
2022-08-02T12:11:23.194Z,27.88
2022-08-02T12:14:03.679Z,27.84
2022-08-02T12:17:20.167Z,27.88
2022-08-02T12:19:49.327Z,27.91
2022-08-02T12:22:18.919Z,27.86
2022-08-02T12:24:48.617Z,27.72
2022-08-02T12:27:30.489Z,27.86
2022-08-02T12:30:07.690Z,28.01
2022-08-02T12:32:39.187Z,28.18
2022-08-02T12:35:11.845Z,28.29
2022-08-02T12:37:41.253Z,28.39
2022-08-02T12:40:29.248Z,28.28
2022-08-02T12:42:58.791Z,28.10
2022-08-02T12:45:39.980Z,28.04
2022-08-02T12:48:09.502Z,28.09
2022-08-02T12:50:38.480Z,27.94
2022-08-02T12:53:07.803Z,27.93
2022-08-02T12:55:59.900Z,28.00
2022-08-02T12:58:27.154Z,27.92
2022-08-02T13:00:58.574Z,27.77
2022-08-02T13:04:11.902Z,27.67
2022-08-02T13:06:41.022Z,27.54
2022-08-02T13:09:03.191Z,27.29
2022-08-02T13:11:31.851Z,27.22
2022-08-02T13:14:00.273Z,27.14
2022-08-02T13:16:31.629Z,27.15
2022-08-02T13:19:00.151Z,27.06
2022-08-02T13:21:41.449Z,27.00
2022-08-02T13:24:33.138Z,27.00
2022-08-02T13:27:08.732Z,27.09
2022-08-02T13:29:37.508Z,27.09
2022-08-02T13:32:07.301Z,27.22
2022-08-02T13:34:35.765Z,27.13
2022-08-02T13:37:03.951Z,27.14
2022-08-02T13:39:32.244Z,27.10
2022-08-02T13:42:00.445Z,27.06
2022-08-02T13:44:28.604Z,26.89
2022-08-02T13:46:56.764Z,26.91
2022-08-02T13:49:51.112Z,26.87
2022-08-02T13:52:14.943Z,26.90
2022-08-02T13:54:43.440Z,26.89
2022-08-02T13:57:11.567Z,26.89
2022-08-02T13:59:56.153Z,26.88
2022-08-02T14:02:28.185Z,26.78
2022-08-02T14:04:58.205Z,26.77
2022-08-02T14:07:26.588Z,26.76
2022-08-02T14:09:54.777Z,26.79
2022-08-02T14:12:23.023Z,26.86
2022-08-02T14:14:52.346Z,26.89
2022-08-02T14:17:20.522Z,27.00
2022-08-02T14:19:48.624Z,27.41
2022-08-02T14:22:18.163Z,27.55
2022-08-02T14:24:46.256Z,27.52
2022-08-02T14:27:15.652Z,27.65
2022-08-02T14:29:45.369Z,27.63
2022-08-02T14:32:13.694Z,27.50
2022-08-02T14:34:44.266Z,27.52
2022-08-02T14:37:13.015Z,27.54
2022-08-02T14:40:00.380Z,27.60
2022-08-02T14:42:29.115Z,27.71
2022-08-02T14:44:57.329Z,27.70
2022-08-02T14:47:25.449Z,27.69
2022-08-02T14:49:53.654Z,27.71
2022-08-02T14:52:21.855Z,27.80
2022-08-02T14:54:51.643Z,27.77
2022-08-02T14:57:20.164Z,27.90
2022-08-02T14:59:48.866Z,27.79
2022-08-02T15:02:17.196Z,27.71
2022-08-02T15:04:45.444Z,27.84
2022-08-02T15:07:14.605Z,27.62
2022-08-02T15:09:42.733Z,27.57
2022-08-02T15:12:12.842Z,27.52
2022-08-02T15:14:41.535Z,27.31
2022-08-02T15:17:09.825Z,27.10
2022-08-02T15:19:58.899Z,26.87
2022-08-02T15:22:26.471Z,26.79
2022-08-02T15:24:54.604Z,26.76
2022-08-02T15:27:24.368Z,26.71
2022-08-02T15:29:52.598Z,26.72
2022-08-02T15:32:20.784Z,26.69
2022-08-02T15:34:48.987Z,26.61
2022-08-02T15:37:17.118Z,26.53
2022-08-02T15:39:45.394Z,26.49
2022-08-02T15:42:13.947Z,26.54
2022-08-02T15:44:45.173Z,26.54
2022-08-02T15:47:14.604Z,26.50
2022-08-02T15:49:42.763Z,26.39
2022-08-02T15:52:11.503Z,26.34
2022-08-02T15:54:54.081Z,26.24
2022-08-02T15:57:22.414Z,26.15
2022-08-02T15:59:56.255Z,26.07
2022-08-02T16:02:25.128Z,26.01
2022-08-02T16:04:54.439Z,26.00
2022-08-02T16:07:22.794Z,26.00
2022-08-02T16:09:50.943Z,25.97
2022-08-02T16:12:32.563Z,25.95
2022-08-02T16:15:03.534Z,25.95
2022-08-02T16:17:49.484Z,25.96
2022-08-02T16:20:20.093Z,25.92
2022-08-02T16:22:48.551Z,25.87
2022-08-02T16:25:17.497Z,25.82
2022-08-02T16:27:57.542Z,25.84
2022-08-02T16:30:37.145Z,25.81
2022-08-02T16:33:06.903Z,25.82
2022-08-02T16:35:35.981Z,25.83
2022-08-02T16:38:10.056Z,25.73
2022-08-02T16:40:38.807Z,25.75
2022-08-02T16:43:09.251Z,25.66
2022-08-02T16:45:40.319Z,25.66
2022-08-02T16:48:13.973Z,25.65
2022-08-02T16:50:46.407Z,25.63
2022-08-02T16:53:30.540Z,25.64
2022-08-02T16:56:03.555Z,25.62
2022-08-02T16:58:34.643Z,25.62
2022-08-02T17:01:04.273Z,25.60
2022-08-02T17:03:55.736Z,25.57
2022-08-02T17:06:20.916Z,25.58
2022-08-02T17:08:55.479Z,25.60
2022-08-02T17:11:24.659Z,25.59
2022-08-02T17:13:54.435Z,25.60
2022-08-02T17:16:25.794Z,25.62
2022-08-02T17:18:55.066Z,25.58
2022-08-02T17:21:23.197Z,25.55
2022-08-02T17:24:08.092Z,25.59
2022-08-02T17:26:36.988Z,25.56
2022-08-02T17:29:16.476Z,25.58
2022-08-02T17:32:05.006Z,25.56
2022-08-02T17:34:34.353Z,25.53
2022-08-02T17:37:05.598Z,25.52
2022-08-02T17:39:44.516Z,25.48
2022-08-02T17:42:23.233Z,25.43
2022-08-02T17:44:52.667Z,25.38
2022-08-02T17:47:30.806Z,25.40
2022-08-02T17:49:59.540Z,25.33
2022-08-02T17:52:50.672Z,25.32
2022-08-02T17:55:17.332Z,25.26
2022-08-02T17:57:57.714Z,25.24
2022-08-02T18:00:35.255Z,25.22
2022-08-02T18:03:10.231Z,25.22
2022-08-02T18:05:53.620Z,25.20
2022-08-02T18:08:24.245Z,25.20
2022-08-02T18:10:53.456Z,25.12
2022-08-02T18:13:21.750Z,25.16
2022-08-02T18:15:50.277Z,25.12
2022-08-02T18:18:29.395Z,25.08
2022-08-02T18:21:16.006Z,25.06
2022-08-02T18:23:58.184Z,25.06
2022-08-02T18:26:28.430Z,24.99
2022-08-02T18:28:57.077Z,24.99
2022-08-02T18:31:27.041Z,24.99
2022-08-02T18:34:01.857Z,24.95
2022-08-02T18:36:30.726Z,24.98
2022-08-02T18:38:59.575Z,24.96
2022-08-02T18:41:36.606Z,24.95
2022-08-02T18:44:06.656Z,24.96
2022-08-02T18:46:34.839Z,24.95
2022-08-02T18:49:06.641Z,24.89
2022-08-02T18:51:42.945Z,24.88
2022-08-02T18:54:11.249Z,24.83
2022-08-02T18:56:40.061Z,24.78
2022-08-02T18:59:08.396Z,24.74
2022-08-02T19:01:46.620Z,24.71
2022-08-02T19:04:27.900Z,24.69
2022-08-02T19:07:05.471Z,24.65
2022-08-02T19:09:39.804Z,24.61
2022-08-02T19:12:11.519Z,24.58
2022-08-02T19:14:41.035Z,24.57
2022-08-02T19:17:15.873Z,24.56
2022-08-02T19:19:46.174Z,24.52
2022-08-02T19:22:20.078Z,24.44
2022-08-02T19:24:51.895Z,24.42
2022-08-02T19:27:25.894Z,24.40
2022-08-02T19:29:54.495Z,24.42
2022-08-02T19:32:41.502Z,24.43
2022-08-02T19:35:19.065Z,24.37
2022-08-02T19:37:59.644Z,24.36
2022-08-02T19:44:25.848Z,24.31
2022-08-02T19:46:05.256Z,24.32
2022-08-02T19:48:33.550Z,24.30
2022-08-02T19:51:08.057Z,24.31
2022-08-02T19:53:46.957Z,24.29
2022-08-02T19:56:21.007Z,24.28
2022-08-02T19:58:51.443Z,24.27
2022-08-02T20:04:13.453Z,24.23
2022-08-02T20:06:45.964Z,24.25
2022-08-02T20:09:16.480Z,24.22
2022-08-02T20:11:45.365Z,24.28
2022-08-02T20:14:13.706Z,24.28
2022-08-02T20:16:41.913Z,24.30
2022-08-02T20:19:10.058Z,24.27
2022-08-02T20:21:42.751Z,24.18
2022-08-02T20:24:14.590Z,24.20
2022-08-02T20:26:47.892Z,24.21
2022-08-02T20:29:17.606Z,24.20
2022-08-02T20:32:05.569Z,24.18
2022-08-02T20:34:36.759Z,24.20
2022-08-02T20:38:00.971Z,24.21
2022-08-02T20:39:54.848Z,24.21
2022-08-02T20:42:24.702Z,24.20
2022-08-02T20:44:55.113Z,24.21
2022-08-02T20:47:38.962Z,24.22
2022-08-02T20:50:30.451Z,24.23
2022-08-02T20:52:59.766Z,24.16
2022-08-02T20:55:31.109Z,24.16
2022-08-02T20:58:01.810Z,24.17
2022-08-02T21:00:31.739Z,24.16
2022-08-02T21:03:00.150Z,24.17
2022-08-02T21:05:43.806Z,24.17
2022-08-02T21:08:17.867Z,24.16
2022-08-02T21:10:52.241Z,24.16
2022-08-02T21:13:24.084Z,24.16
2022-08-02T21:15:53.364Z,24.17
2022-08-02T21:18:35.472Z,24.19
2022-08-02T21:21:09.762Z,24.21
2022-08-02T21:23:44.918Z,24.21
2022-08-02T21:26:19.681Z,24.20
2022-08-02T21:28:55.407Z,24.25
2022-08-02T21:31:30.136Z,24.25
2022-08-02T21:34:00.877Z,24.26
2022-08-02T21:36:30.825Z,24.27
2022-08-02T21:39:04.728Z,24.25
2022-08-02T21:41:46.406Z,24.20
2022-08-02T21:44:16.559Z,24.21
2022-08-02T21:46:46.007Z,24.20
2022-08-02T21:49:14.910Z,24.18
2022-08-02T21:51:49.339Z,24.16
2022-08-02T21:54:20.380Z,24.10
2022-08-02T21:56:51.971Z,24.06
2022-08-02T21:59:25.810Z,24.02
2022-08-02T22:01:56.997Z,23.99
2022-08-02T22:04:47.845Z,23.94
2022-08-02T22:07:24.038Z,23.94
2022-08-02T22:09:53.480Z,23.93
2022-08-02T22:12:25.876Z,23.92
2022-08-02T22:14:56.607Z,23.94
2022-08-02T22:20:20.157Z,23.98
2022-08-02T22:22:52.644Z,23.95
2022-08-02T22:25:31.419Z,23.94
2022-08-02T22:28:35.256Z,23.95
2022-08-02T22:30:58.258Z,23.93
2022-08-02T22:33:47.035Z,23.95
2022-08-02T22:36:28.982Z,23.90
2022-08-02T22:38:57.112Z,23.90
2022-08-02T22:41:25.281Z,23.89
2022-08-02T22:44:15.115Z,23.90
2022-08-02T22:46:46.928Z,23.90
2022-08-02T22:49:37.011Z,23.90
2022-08-02T22:52:06.202Z,23.91
2022-08-02T22:54:34.619Z,23.93
2022-08-02T22:57:02.894Z,23.94
2022-08-02T22:59:04.572Z,23.97
2022-08-02T22:59:06.081Z,24.34
2022-08-02T22:59:06.635Z,24.29
2022-08-02T22:59:39.835Z,23.97
2022-08-02T23:02:08.911Z,23.97
2022-08-02T23:04:37.659Z,24.00
2022-08-02T23:07:05.864Z,23.97
2022-08-02T23:09:34.084Z,24.00
2022-08-02T23:12:02.218Z,24.01
2022-08-02T23:14:30.345Z,24.01
2022-08-02T23:17:17.251Z,23.98
2022-08-02T23:19:54.579Z,23.98
2022-08-02T23:22:29.139Z,23.95
2022-08-02T23:24:58.737Z,23.99
2022-08-02T23:27:26.843Z,24.01
2022-08-02T23:29:57.260Z,24.02
2022-08-02T23:32:26.774Z,24.05
2022-08-02T23:34:55.151Z,24.09
2022-08-02T23:37:23.767Z,24.11
2022-08-02T23:39:51.928Z,24.10
2022-08-02T23:42:20.011Z,24.11
2022-08-02T23:44:48.156Z,24.08
2022-08-02T23:47:16.995Z,24.06
2022-08-02T23:49:46.664Z,24.06
2022-08-02T23:52:14.950Z,23.99
2022-08-02T23:54:43.269Z,24.01
2022-08-02T23:57:20.488Z,23.96
2022-08-02T23:59:49.799Z,23.98
